createdAt,value
2017-12-12T00:02:19.937Z,6.71
2017-12-12T00:04:45.795Z,6.93
2017-12-12T00:07:11.598Z,7.02
2017-12-12T00:09:37.463Z,7.11
2017-12-12T00:12:05.115Z,7.19
2017-12-12T00:14:30.960Z,7.23
2017-12-12T00:19:27.521Z,7.34
2017-12-12T00:21:55.319Z,7.36
2017-12-12T00:24:21.132Z,7.36
2017-12-12T00:26:50.425Z,7.34
2017-12-12T00:29:16.205Z,7.32
2017-12-12T00:31:45.783Z,7.30
2017-12-12T00:34:11.596Z,7.26
2017-12-12T00:36:40.666Z,7.27
2017-12-12T00:39:06.455Z,7.27
2017-12-12T00:41:32.292Z,7.30
2017-12-12T00:43:58.106Z,7.32
2017-12-12T00:46:23.961Z,7.34
2017-12-12T00:48:51.116Z,7.33
2017-12-12T00:51:16.924Z,7.27
2017-12-12T00:53:46.078Z,7.27
2017-12-12T00:56:11.918Z,7.32
2017-12-12T00:58:40.876Z,7.33
2017-12-12T01:01:06.711Z,7.32
2017-12-12T01:03:35.595Z,7.32
2017-12-12T01:06:01.467Z,7.32
2017-12-12T01:08:30.540Z,7.30
2017-12-12T01:10:56.316Z,7.36
2017-12-12T01:13:24.455Z,7.32
2017-12-12T01:15:50.256Z,7.18
2017-12-12T01:18:16.100Z,6.85
2017-12-12T01:20:41.921Z,6.51
2017-12-12T01:23:07.753Z,6.24
2017-12-12T01:25:37.435Z,6.10
2017-12-12T01:28:03.234Z,6.00
2017-12-12T01:30:32.568Z,6.00
2017-12-12T01:32:58.383Z,5.94
2017-12-12T01:35:26.204Z,5.92
2017-12-12T01:37:52.047Z,5.89
2017-12-12T01:40:20.442Z,5.90
2017-12-12T01:42:46.301Z,5.93
2017-12-12T01:45:15.552Z,5.93
2017-12-12T01:47:41.395Z,5.89
2017-12-12T01:50:10.865Z,5.82
2017-12-12T01:52:36.742Z,5.78
2017-12-12T01:55:02.594Z,5.71
2017-12-12T01:57:28.456Z,5.67
2017-12-12T01:59:54.331Z,5.61
2017-12-12T02:02:21.602Z,5.63
2017-12-12T02:04:47.449Z,5.58
2017-12-12T02:07:16.359Z,5.55
2017-12-12T02:09:42.243Z,5.52
2017-12-12T02:12:11.547Z,5.45
2017-12-12T02:14:37.398Z,5.36
2017-12-12T02:17:06.486Z,5.34
2017-12-12T02:19:32.331Z,5.25
2017-12-12T02:22:02.119Z,5.15
2017-12-12T02:24:28.000Z,5.03
2017-12-12T02:26:55.616Z,5.02
2017-12-12T02:29:21.535Z,4.96
2017-12-12T02:34:23.383Z,4.86
2017-12-12T02:36:49.306Z,4.77
2017-12-12T02:39:15.158Z,4.76
2017-12-12T02:41:41.014Z,4.66
2017-12-12T02:44:06.920Z,4.63
2017-12-12T02:46:32.737Z,4.49
2017-12-12T02:48:58.651Z,4.42
2017-12-12T02:51:24.524Z,4.35
2017-12-12T02:53:50.908Z,4.30
2017-12-12T02:56:16.780Z,4.27
2017-12-12T02:58:45.281Z,4.21
2017-12-12T03:01:11.147Z,4.22
2017-12-12T03:06:07.968Z,4.28
2017-12-12T03:08:33.831Z,4.27
2017-12-12T03:10:59.655Z,4.28
2017-12-12T03:13:25.489Z,4.27
2017-12-12T03:15:52.907Z,4.25
2017-12-12T03:18:18.869Z,4.20
2017-12-12T03:20:47.677Z,4.21
2017-12-12T03:23:13.531Z,4.13
2017-12-12T03:25:42.231Z,4.04
2017-12-12T03:28:08.081Z,3.93
2017-12-12T03:30:37.099Z,3.93
2017-12-12T03:33:02.986Z,3.88
2017-12-12T03:35:30.836Z,3.84
2017-12-12T03:37:56.686Z,3.78
2017-12-12T03:40:25.939Z,3.76
2017-12-12T03:42:51.783Z,3.69
2017-12-12T03:45:17.675Z,3.67
2017-12-12T03:47:43.527Z,3.64
2017-12-12T03:50:09.353Z,3.61
2017-12-12T03:52:37.258Z,3.57
2017-12-12T03:55:03.094Z,3.56
2017-12-12T03:57:31.913Z,3.59
2017-12-12T03:59:57.774Z,3.54
2017-12-12T04:02:27.103Z,3.55
2017-12-12T04:04:52.969Z,3.63
2017-12-12T04:07:22.194Z,3.57
2017-12-12T04:09:48.084Z,3.56
2017-12-12T04:12:17.594Z,3.57
2017-12-12T04:14:43.466Z,3.39
2017-12-12T04:17:12.705Z,3.41
2017-12-12T04:19:38.523Z,3.35
2017-12-12T04:22:04.334Z,3.34
2017-12-12T04:24:30.167Z,3.34
2017-12-12T04:26:56.028Z,3.36
2017-12-12T04:29:23.405Z,3.35
2017-12-12T04:31:49.285Z,3.33
2017-12-12T04:34:18.726Z,3.34
2017-12-12T04:36:44.629Z,3.32
2017-12-12T04:39:13.782Z,3.35
2017-12-12T04:41:39.610Z,3.35
2017-12-12T04:44:07.005Z,3.32
2017-12-12T04:46:32.828Z,3.30
2017-12-12T04:49:02.080Z,3.09
2017-12-12T04:51:27.926Z,3.04
2017-12-12T04:53:56.851Z,2.74
2017-12-12T04:56:22.720Z,2.56
2017-12-12T04:58:48.580Z,2.45
2017-12-12T05:01:14.428Z,2.33
2017-12-12T05:03:40.242Z,2.32
2017-12-12T05:06:07.842Z,2.35
2017-12-12T05:08:33.720Z,2.35
2017-12-12T05:11:02.566Z,2.39
2017-12-12T05:13:28.407Z,2.49
2017-12-12T05:15:57.815Z,2.52
2017-12-12T05:18:23.675Z,2.56
2017-12-12T05:20:52.681Z,2.57
2017-12-12T05:23:18.551Z,2.63
2017-12-12T05:25:47.656Z,2.65
2017-12-12T05:28:13.548Z,2.65
2017-12-12T05:30:43.240Z,2.66
2017-12-12T05:33:09.093Z,2.69
2017-12-12T05:35:34.950Z,2.67
2017-12-12T05:38:00.806Z,2.62
2017-12-12T05:40:26.655Z,2.64
2017-12-12T05:42:53.114Z,2.68
2017-12-12T05:45:18.941Z,2.73
2017-12-12T05:47:47.354Z,2.73
2017-12-12T05:50:13.189Z,2.69
2017-12-12T05:52:40.010Z,2.74
2017-12-12T05:55:05.837Z,2.71
2017-12-12T05:57:31.691Z,2.74
2017-12-12T05:59:59.341Z,2.75
2017-12-12T06:02:25.196Z,2.82
2017-12-12T06:04:54.680Z,2.81
2017-12-12T06:07:20.553Z,2.83
2017-12-12T06:09:49.480Z,2.88
2017-12-12T06:12:15.439Z,2.85
2017-12-12T06:14:44.544Z,2.86
2017-12-12T06:17:10.373Z,2.88
2017-12-12T06:19:39.916Z,2.87
2017-12-12T06:22:05.805Z,2.86
2017-12-12T06:24:34.710Z,2.88
2017-12-12T06:27:00.629Z,2.92
2017-12-12T06:29:27.961Z,2.96
2017-12-12T06:31:53.790Z,2.91
2017-12-12T06:34:24.007Z,2.90
2017-12-12T06:36:49.865Z,2.90
2017-12-12T06:39:17.738Z,2.87
2017-12-12T06:41:43.618Z,2.88
2017-12-12T06:44:12.942Z,2.89
2017-12-12T06:46:38.783Z,2.92
2017-12-12T06:49:04.640Z,2.88
2017-12-12T06:51:30.550Z,2.89
2017-12-12T06:53:56.400Z,2.94
2017-12-12T06:56:23.955Z,2.94
2017-12-12T06:58:49.867Z,2.95
2017-12-12T07:01:19.053Z,2.91
2017-12-12T07:03:44.916Z,3.00
2017-12-12T07:06:13.186Z,3.00
2017-12-12T07:08:39.057Z,3.00
2017-12-12T07:11:07.806Z,2.97
2017-12-12T07:13:33.649Z,2.98
2017-12-12T07:16:02.520Z,3.02
2017-12-12T07:18:42.361Z,2.91
2017-12-12T07:21:08.243Z,2.90
2017-12-12T07:23:34.129Z,2.90
2017-12-12T07:25:59.996Z,2.85
2017-12-12T07:28:25.838Z,2.85
2017-12-12T07:30:51.730Z,2.91
2017-12-12T07:33:17.579Z,2.89
2017-12-12T07:35:43.486Z,2.93
2017-12-12T07:38:09.355Z,2.96
2017-12-12T07:40:35.196Z,2.98
2017-12-12T07:43:01.030Z,2.95
2017-12-12T07:45:26.897Z,3.00
2017-12-12T07:47:54.089Z,3.04
2017-12-12T07:50:19.972Z,3.07
2017-12-12T07:52:49.395Z,3.04
2017-12-12T07:55:15.266Z,3.07
2017-12-12T07:57:44.622Z,3.04
2017-12-12T08:00:10.499Z,3.05
2017-12-12T08:02:36.365Z,3.13
2017-12-12T08:05:02.237Z,3.14
2017-12-12T08:07:28.125Z,3.04
2017-12-12T08:09:55.146Z,3.03
2017-12-12T08:12:21.012Z,3.00
2017-12-12T08:14:50.080Z,2.97
2017-12-12T08:17:15.955Z,2.94
2017-12-12T08:19:44.898Z,2.98
2017-12-12T08:22:10.810Z,2.97
2017-12-12T08:24:38.840Z,2.98
2017-12-12T08:27:04.735Z,3.01
2017-12-12T08:29:34.046Z,3.02
2017-12-12T08:31:59.929Z,3.05
2017-12-12T08:34:29.186Z,3.07
2017-12-12T08:36:55.068Z,3.12
2017-12-12T08:39:20.933Z,3.14
2017-12-12T08:41:46.824Z,3.23
2017-12-12T08:44:12.708Z,3.30
2017-12-12T08:46:39.880Z,3.38
2017-12-12T08:49:05.777Z,3.45
2017-12-12T08:51:34.356Z,3.47
2017-12-12T08:54:00.307Z,3.53
2017-12-12T08:56:29.787Z,3.59
2017-12-12T08:58:55.665Z,3.60
2017-12-12T09:01:25.516Z,3.61
2017-12-12T09:03:51.416Z,3.66
2017-12-12T09:06:20.556Z,3.64
2017-12-12T09:08:46.456Z,3.59
2017-12-12T09:11:13.754Z,3.61
2017-12-12T09:13:39.618Z,3.65
2017-12-12T09:16:05.463Z,3.69
2017-12-12T09:18:31.343Z,3.65
2017-12-12T09:20:57.239Z,3.69
2017-12-12T09:23:24.861Z,3.73
2017-12-12T09:25:50.750Z,3.81
2017-12-12T09:28:20.252Z,3.77
2017-12-12T09:30:46.176Z,3.82
2017-12-12T09:33:17.180Z,3.85
2017-12-12T09:35:43.086Z,3.86
2017-12-12T09:38:09.556Z,3.91
2017-12-12T09:40:35.469Z,3.89
2017-12-12T09:43:04.890Z,3.93
2017-12-12T09:45:30.781Z,4.03
2017-12-12T09:47:59.509Z,4.08
2017-12-12T09:50:25.413Z,4.17
2017-12-12T09:52:51.289Z,4.17
2017-12-12T09:55:17.182Z,4.06
2017-12-12T09:57:43.028Z,4.09
2017-12-12T10:00:11.960Z,4.06
2017-12-12T10:02:37.843Z,4.16
2017-12-12T10:05:05.711Z,4.15
2017-12-12T10:07:31.609Z,4.16
2017-12-12T10:10:01.111Z,4.18
2017-12-12T10:12:27.044Z,4.17
2017-12-12T10:14:56.132Z,4.22
2017-12-12T10:17:22.034Z,4.11
2017-12-12T10:19:51.026Z,4.10
2017-12-12T10:22:16.945Z,4.13
2017-12-12T10:24:44.316Z,4.16
2017-12-12T10:27:10.193Z,4.13
2017-12-12T10:29:36.085Z,4.10
2017-12-12T10:32:01.941Z,4.08
2017-12-12T10:34:27.884Z,4.05
2017-12-12T10:36:55.664Z,4.04
2017-12-12T10:39:21.564Z,4.04
2017-12-12T10:41:50.284Z,4.02
2017-12-12T10:44:16.257Z,3.99
2017-12-12T10:46:44.807Z,4.01
2017-12-12T10:49:10.716Z,4.02
2017-12-12T10:51:39.219Z,3.98
2017-12-12T10:54:05.121Z,4.00
2017-12-12T10:56:33.819Z,4.06
2017-12-12T10:58:59.724Z,4.07
2017-12-12T11:03:56.607Z,4.00
2017-12-12T11:06:22.480Z,4.01
2017-12-12T11:08:48.385Z,4.02
2017-12-12T11:11:14.270Z,4.10
2017-12-12T11:13:41.412Z,4.19
2017-12-12T11:16:07.254Z,4.30
2017-12-12T11:18:36.491Z,4.28
2017-12-12T11:21:02.340Z,4.27
2017-12-12T11:23:32.041Z,4.36
2017-12-12T11:25:57.928Z,4.42
2017-12-12T11:28:25.021Z,4.44
2017-12-12T11:30:50.902Z,4.52
2017-12-12T11:33:21.237Z,4.59
2017-12-12T11:35:47.143Z,4.49
2017-12-12T11:38:16.383Z,4.46
2017-12-12T11:40:42.235Z,4.45
2017-12-12T11:43:08.146Z,4.48
2017-12-12T11:45:34.062Z,4.47
2017-12-12T11:47:59.959Z,4.48
2017-12-12T11:50:26.172Z,4.45
2017-12-12T11:52:52.143Z,4.44
2017-12-12T11:55:20.895Z,4.50
2017-12-12T11:57:46.825Z,4.39
2017-12-12T12:00:16.566Z,4.33
2017-12-12T12:02:42.468Z,4.33
2017-12-12T12:05:11.964Z,4.42
2017-12-12T12:07:37.884Z,4.45
2017-12-12T12:10:05.609Z,4.52
2017-12-12T12:12:31.567Z,4.57
2017-12-12T12:15:01.409Z,4.61
2017-12-12T12:17:27.339Z,4.65
2017-12-12T12:19:53.460Z,4.83
2017-12-12T12:22:19.370Z,4.85
2017-12-12T12:24:45.254Z,4.86
2017-12-12T12:27:11.512Z,4.93
2017-12-12T12:29:37.419Z,4.87
2017-12-12T12:32:06.656Z,4.86
2017-12-12T12:34:32.604Z,4.93
2017-12-12T12:37:01.067Z,5.33
2017-12-12T12:39:26.937Z,5.72
2017-12-12T12:41:56.904Z,5.71
2017-12-12T12:44:22.773Z,5.62
2017-12-12T12:46:50.518Z,5.36
2017-12-12T12:49:16.442Z,5.11
2017-12-12T12:51:46.147Z,5.14
2017-12-12T12:54:12.032Z,5.17
2017-12-12T12:56:37.949Z,5.23
2017-12-12T12:59:03.808Z,5.19
2017-12-12T13:01:29.828Z,5.05
2017-12-12T13:03:57.521Z,4.99
2017-12-12T13:06:23.485Z,4.95
2017-12-12T13:08:51.655Z,4.86
2017-12-12T13:11:17.524Z,4.86
2017-12-12T13:13:50.161Z,4.89
2017-12-12T13:16:16.056Z,4.92
2017-12-12T13:18:41.943Z,4.96
2017-12-12T13:21:07.814Z,4.93
2017-12-12T13:23:35.508Z,4.83
2017-12-12T13:26:01.416Z,4.82
2017-12-12T13:28:30.989Z,4.86
2017-12-12T13:30:56.917Z,4.93
2017-12-12T13:33:22.779Z,4.94
2017-12-12T13:35:48.670Z,4.90
2017-12-12T13:38:14.611Z,4.90
2017-12-12T13:40:43.639Z,4.88
2017-12-12T13:43:09.525Z,4.80
2017-12-12T13:45:38.760Z,4.72
2017-12-12T13:48:04.661Z,4.69
2017-12-12T13:50:32.154Z,4.62
2017-12-12T13:52:58.068Z,4.54
2017-12-12T13:55:27.074Z,4.51
2017-12-12T13:57:52.951Z,4.49
2017-12-12T14:00:22.029Z,4.52
2017-12-12T14:02:47.947Z,4.56
2017-12-12T14:05:16.793Z,4.50
2017-12-12T14:07:42.670Z,4.47
2017-12-12T14:10:08.555Z,4.45
2017-12-12T14:12:34.444Z,4.45
2017-12-12T14:15:00.353Z,4.47
2017-12-12T14:17:27.603Z,4.56
2017-12-12T14:19:53.490Z,4.57
2017-12-12T14:22:22.513Z,4.68
2017-12-12T14:24:48.399Z,4.67
2017-12-12T14:27:16.603Z,4.48
2017-12-12T14:29:42.529Z,4.43
2017-12-12T14:32:11.629Z,4.75
2017-12-12T14:34:37.493Z,4.90
2017-12-12T14:37:07.194Z,5.02
2017-12-12T14:39:33.084Z,5.00
2017-12-12T14:42:02.950Z,4.93
2017-12-12T14:44:28.834Z,4.87
2017-12-12T14:46:54.738Z,4.71
2017-12-12T14:49:20.647Z,4.69
2017-12-12T14:51:46.539Z,4.75
2017-12-12T14:54:12.873Z,4.69
2017-12-12T14:56:38.757Z,4.70
2017-12-12T14:59:08.153Z,4.74
2017-12-12T15:01:34.066Z,4.58
2017-12-12T15:04:03.463Z,4.56
2017-12-12T15:06:29.321Z,4.41
2017-12-12T15:08:58.636Z,4.32
2017-12-12T15:11:24.482Z,4.23
2017-12-12T15:13:51.857Z,4.18
2017-12-12T15:16:17.757Z,4.12
2017-12-12T15:18:47.034Z,4.06
2017-12-12T15:21:12.903Z,3.96
2017-12-12T15:23:38.804Z,3.93
2017-12-12T15:26:04.721Z,4.03
2017-12-12T15:28:30.606Z,3.92
2017-12-12T15:30:59.684Z,3.97
2017-12-12T15:33:25.627Z,3.98
2017-12-12T15:35:53.006Z,3.98
2017-12-12T15:38:18.918Z,3.98
2017-12-12T15:40:48.053Z,4.07
2017-12-12T15:43:13.941Z,4.04
2017-12-12T15:45:43.544Z,4.03
2017-12-12T15:48:09.477Z,3.90
2017-12-12T15:50:36.956Z,3.90
2017-12-12T15:53:02.873Z,3.80
2017-12-12T15:55:31.970Z,3.73
2017-12-12T15:57:57.852Z,3.55
2017-12-12T16:00:23.748Z,3.50
2017-12-12T16:02:49.635Z,3.47
2017-12-12T16:05:15.537Z,3.39
2017-12-12T16:07:44.762Z,3.39
2017-12-12T16:10:10.652Z,3.37
2017-12-12T16:12:38.146Z,3.35
2017-12-12T16:15:04.024Z,3.34
2017-12-12T16:17:33.696Z,3.34
2017-12-12T16:19:59.609Z,3.33
2017-12-12T16:22:28.598Z,3.31
2017-12-12T16:24:54.714Z,3.31
2017-12-12T16:27:20.580Z,3.30
2017-12-12T16:29:46.511Z,3.30
2017-12-12T16:32:12.437Z,3.17
2017-12-12T16:34:38.324Z,3.19
2017-12-12T16:37:04.225Z,3.15
2017-12-12T16:39:30.170Z,3.14
2017-12-12T16:41:56.084Z,3.06
2017-12-12T16:44:42.048Z,2.97
2017-12-12T16:47:10.860Z,2.81
2017-12-12T16:49:36.762Z,2.66
2017-12-12T16:52:05.589Z,2.54
2017-12-12T16:54:31.557Z,2.49
2017-12-12T16:56:57.432Z,2.41
2017-12-12T16:59:28.501Z,2.40
2017-12-12T17:01:55.861Z,2.45
2017-12-12T17:04:21.809Z,2.44
2017-12-12T17:07:04.836Z,2.42
2017-12-12T17:09:30.757Z,2.37
2017-12-12T17:11:56.638Z,2.34
2017-12-12T17:14:22.516Z,2.25
2017-12-12T17:16:48.438Z,2.27
2017-12-12T17:19:14.355Z,2.25
2017-12-12T17:21:40.263Z,2.26
2017-12-12T17:24:06.157Z,2.23
2017-12-12T17:29:22.204Z,2.18
2017-12-12T17:31:48.092Z,2.17
2017-12-12T17:34:13.988Z,2.23
2017-12-12T17:36:39.961Z,2.26
2017-12-12T17:39:05.948Z,2.24
2017-12-12T17:43:57.558Z,2.25
2017-12-12T17:46:23.425Z,2.24
2017-12-12T17:51:41.498Z,2.24
2017-12-12T17:54:07.334Z,2.21
2017-12-12T17:56:33.212Z,2.16
2017-12-12T17:58:59.081Z,2.10
2017-12-12T18:01:24.929Z,2.13
2017-12-12T18:03:50.796Z,2.10
2017-12-12T18:08:46.904Z,2.05
2017-12-12T18:11:12.780Z,2.07
2017-12-12T18:13:38.582Z,2.12
2017-12-12T18:16:04.418Z,2.18
2017-12-12T18:18:30.294Z,2.19
2017-12-12T18:20:56.134Z,2.15
2017-12-12T18:23:22.007Z,2.18
2017-12-12T18:25:47.878Z,2.17
2017-12-12T18:28:13.740Z,2.20
2017-12-12T18:30:39.568Z,2.26
2017-12-12T18:33:05.410Z,2.25
2017-12-12T18:35:31.207Z,2.29
2017-12-12T18:37:57.051Z,2.28
2017-12-12T18:40:22.862Z,2.21
2017-12-12T18:42:48.692Z,2.21
2017-12-12T18:45:14.535Z,2.22
2017-12-12T18:47:40.372Z,2.13
2017-12-12T18:50:06.198Z,2.09
2017-12-12T18:52:32.042Z,1.99
2017-12-12T18:54:57.911Z,1.97
2017-12-12T18:57:23.767Z,1.90
2017-12-12T18:59:49.654Z,1.85
2017-12-12T19:02:15.500Z,1.82
2017-12-12T19:04:41.387Z,1.82
2017-12-12T19:07:07.221Z,1.80
2017-12-12T19:09:33.030Z,1.70
2017-12-12T19:11:58.832Z,1.70
2017-12-12T19:14:24.680Z,1.71
2017-12-12T19:16:50.485Z,1.73
2017-12-12T19:19:16.306Z,1.79
2017-12-12T19:21:42.136Z,1.78
2017-12-12T19:24:07.993Z,1.85
2017-12-12T19:26:34.662Z,1.98
2017-12-12T19:29:00.482Z,2.04
2017-12-12T19:31:29.788Z,2.02
2017-12-12T19:33:55.586Z,2.04
2017-12-12T19:36:24.808Z,2.12
2017-12-12T19:38:50.682Z,2.21
2017-12-12T19:41:18.557Z,2.20
2017-12-12T19:43:44.384Z,2.21
2017-12-12T19:46:10.260Z,2.21
2017-12-12T19:48:36.089Z,2.23
2017-12-12T19:51:01.928Z,2.19
2017-12-12T19:53:30.943Z,2.16
2017-12-12T19:55:56.766Z,2.21
2017-12-12T19:58:25.830Z,2.21
2017-12-12T20:00:51.682Z,2.29
2017-12-12T20:03:21.315Z,2.30
2017-12-12T20:05:47.218Z,2.15
2017-12-12T20:08:14.723Z,2.22
2017-12-12T20:10:40.565Z,2.32
2017-12-12T20:13:09.643Z,2.35
2017-12-12T20:15:35.534Z,2.27
2017-12-12T20:18:04.723Z,2.12
2017-12-12T20:23:11.489Z,2.26
2017-12-12T20:25:37.286Z,2.27
2017-12-12T20:28:03.170Z,2.29
2017-12-12T20:30:29.022Z,2.27
2017-12-12T20:32:54.868Z,2.21
2017-12-12T20:35:20.700Z,2.21
2017-12-12T20:37:46.521Z,2.26
2017-12-12T20:40:12.379Z,2.18
2017-12-12T20:42:38.164Z,2.14
2017-12-12T20:45:04.017Z,1.95
2017-12-12T20:47:29.859Z,1.67
2017-12-12T20:49:55.694Z,1.61
2017-12-12T20:52:21.581Z,1.63
2017-12-12T20:54:49.188Z,1.54
2017-12-12T20:57:15.026Z,1.39
2017-12-12T20:59:40.863Z,1.47
2017-12-12T21:02:06.714Z,1.59
2017-12-12T21:04:32.583Z,1.62
2017-12-12T21:07:08.117Z,1.63
2017-12-12T21:09:33.956Z,1.68
2017-12-12T21:11:59.795Z,1.68
2017-12-12T21:14:25.641Z,1.69
2017-12-12T21:16:51.459Z,1.71
2017-12-12T21:19:17.256Z,1.62
2017-12-12T21:21:45.891Z,1.61
2017-12-12T21:24:11.689Z,1.61
2017-12-12T21:26:40.724Z,1.69
2017-12-12T21:29:06.567Z,1.76
2017-12-12T21:31:36.203Z,1.73
2017-12-12T21:34:01.981Z,1.74
2017-12-12T21:36:27.777Z,1.81
2017-12-12T21:38:53.574Z,1.90
2017-12-12T21:41:19.376Z,1.84
2017-12-12T21:43:45.167Z,1.82
2017-12-12T21:46:10.993Z,1.70
2017-12-12T21:48:36.771Z,1.57
2017-12-12T21:51:02.557Z,1.50
2017-12-12T21:53:28.356Z,1.58
2017-12-12T21:55:54.139Z,1.56
2017-12-12T21:58:19.939Z,1.53
2017-12-12T22:00:45.721Z,1.47
2017-12-12T22:03:11.495Z,1.44
2017-12-12T22:05:37.307Z,1.35
2017-12-12T22:08:03.097Z,1.20
2017-12-12T22:10:28.922Z,1.16
2017-12-12T22:12:54.758Z,1.07
2017-12-12T22:15:20.599Z,1.05
2017-12-12T22:17:46.453Z,1.12
2017-12-12T22:20:12.278Z,1.17
2017-12-12T22:22:38.096Z,1.23
2017-12-12T22:25:04.032Z,1.32
2017-12-12T22:27:29.863Z,1.36
2017-12-12T22:29:55.689Z,1.36
2017-12-12T22:32:21.519Z,1.34
2017-12-12T22:34:47.408Z,1.29
2017-12-12T22:37:13.276Z,1.28
2017-12-12T22:39:39.058Z,1.24
2017-12-12T22:42:04.904Z,1.30
2017-12-12T22:44:30.747Z,1.32
2017-12-12T22:46:56.542Z,1.34
2017-12-12T22:49:22.441Z,1.36
2017-12-12T22:51:48.226Z,1.34
2017-12-12T22:54:14.078Z,1.36
2017-12-12T22:56:39.910Z,1.38
2017-12-12T22:59:05.769Z,1.35
2017-12-12T23:01:31.581Z,1.32
2017-12-12T23:03:57.398Z,1.26
2017-12-12T23:06:23.213Z,1.25
2017-12-12T23:08:49.045Z,1.26
2017-12-12T23:11:14.889Z,1.26
2017-12-12T23:13:40.689Z,1.24
2017-12-12T23:16:06.540Z,1.32
2017-12-12T23:18:32.373Z,1.33
2017-12-12T23:20:58.273Z,1.30
2017-12-12T23:23:24.097Z,1.33
2017-12-12T23:25:49.980Z,1.33
2017-12-12T23:28:15.856Z,1.34
2017-12-12T23:30:41.689Z,1.32
2017-12-12T23:33:07.580Z,1.29
2017-12-12T23:35:33.461Z,1.30
2017-12-12T23:37:59.302Z,1.33
2017-12-12T23:40:25.162Z,1.34
2017-12-12T23:42:51.021Z,1.29
2017-12-12T23:45:16.833Z,1.21
2017-12-12T23:47:42.672Z,1.22
2017-12-12T23:50:08.483Z,1.18
2017-12-12T23:52:34.317Z,1.20
2017-12-12T23:55:03.654Z,1.16
2017-12-12T23:57:29.484Z,1.16
2017-12-12T23:59:57.335Z,1.20
